Weather observations for the past three days for
Casa Grande, Casa Grande Municipal Airport
Imperial (Metric)
Date Time (mst) Wind (mph) Vis. (mi.) Weather Sky Cond. Temperature (ºF) Relative Humidity Wind Chill (°F) Heat Index (°F) Pressure Precipitation (in)
Air Dwpt 6 hour altimeter (in) sea level (mb) 1 hr 3 hr 6 hr
Max. Min.
04 17:56 S 20 G 24 10.00 Fair CLR 77 39 26% 77 29.86 1009.9
04 16:56 W 6 10.00 Fair CLR 78.1 42.1 80.1 75.9 28% 78 29.86 1009.9
04 15:56 SW 12 10.00 Fair CLR 79 39.9 25% 78 29.85 1009.7
04 14:56 Vrbl 3 10.00 A Few Clouds FEW001 77 46 33% 78 29.89 1010.8
04 13:56 SW 15 10.00 Fair CLR 78.1 42.1 28% 78 29.91 1011.6
04 12:56 SW 12 10.00 Fair CLR 78.1 46 32% 78 29.9 1011.3
04 11:56 W 10 10.00 Fair CLR 78.1 46 32% 78 29.9 1011.4
04 10:56 S 14 10.00 Fair CLR 77 46.9 77 69.1 35% 78 29.91 1011.7
04 09:56 SW 13 G 22 10.00 Fair CLR 75.9 46.9 36% 78 29.92 1012.1
04 08:56 SW 17 10.00 Fair CLR 73.9 46.9 38% 29.92 1012.0
04 07:56 SW 15 10.00 Fair CLR 73 46.9 40% 29.9 1011.3
04 06:56 S 3 10.00 Fair CLR 70 48 46% 29.91 1011.4
04 05:56 SW 7 10.00 Fair CLR 69.1 46.9 45% 29.88 1010.5
04 04:56 SW 3 10.00 Fair CLR 71.1 45 77 70 39% 29.87 1010.1
04 03:56 S 6 10.00 Fair CLR 72 45 38% 29.87 1009.7
04 02:56 SW 6 10.00 Fair CLR 73 45 37% 29.87 1010.0
04 01:56 SW 10 10.00 Fair CLR 73.9 46 37% 29.85 1009.3
04 00:56 SW 12 10.00 Fair CLR 75 46.9 37% 77 29.85 1009.3
03 23:56 S 7 10.00 Fair CLR 75.9 46 35% 78 0 0.0
03 22:56 SW 9 10.00 Fair CLR 77 44.1 93.9 77 31% 78 29.86 1009.5
03 21:56 SW 13 10.00 Fair CLR 78.1 41 27% 78 29.85 1009.4
03 20:56 SW 20 10.00 Fair CLR 80.1 37.9 22% 79 29.83 1008.8
03 19:56 SW 16 10.00 Fair CLR 82 37 20% 80 29.8 1007.6
03 18:56 SW 21 G 26 10.00 Fair and Breezy CLR 84.9 35.1 17% 82 29.77 1006.6
03 17:56 SW 23 G 30 10.00 Fair and Breezy CLR 90 33.1 13% 86 29.75 1005.8
03 16:56 SW 18 G 31 8.00 Fair CLR 93.9 30.9 96.1 88 11% 89 29.75 1005.8
03 15:56 SW 23 G 29 9.00 Fair and Breezy CLR 95 28.9 9% 90 29.74 1005.5
03 14:56 W 5 10.00 Fair CLR 93 37 14% 89 29.77 1006.6
03 13:56 S 5 10.00 Fair CLR 91.9 37 14% 88 29.81 1007.8
03 12:56 S 5 10.00 Fair CLR 89.1 39 17% 85 29.84 1008.7
03 11:56 SE 10 10.00 Fair CLR 89.1 37.9 16% 85 29.86 1009.5
03 10:56 S 16 10.00 Fair CLR 88 41 88 73.9 19% 84 29.88 1010.2
03 09:56 S 15 10.00 Fair CLR 87.1 43 21% 84 29.89 1010.4
03 08:56 E 9 10.00 Fair CLR 82 46 28% 80 29.89 1010.8
03 07:56 E 13 10.00 Fair CLR 79 45 30% 79 29.9 1010.9
03 06:56 E 12 10.00 Fair CLR 75 44.1 33% 77 0 0.0
03 05:56 E 10 10.00 Fair CLR 73.9 43 33% 29.86 1009.8
03 04:56 E 10 10.00 Fair CLR 75 42.1 81 75 31% 77 29.86 1009.4
03 03:56 SE 9 10.00 Fair CLR 75.9 41 29% 77 29.86 1009.4
03 02:56 E 13 10.00 Fair CLR 78.1 41 27% 78 29.85 1009.3
03 01:56 E 13 10.00 Fair CLR 78.1 37.9 24% 78 29.85 1009.3
03 00:56 E 10 10.00 Fair CLR 78.1 36 22% 78 29.86 1009.7
02 23:56 E 10 10.00 Fair CLR 79 35.1 20% 78 29.87 1009.8
02 22:56 E 10 10.00 Fair CLR 81 35.1 90 80.1 19% 79 29.86 1009.3
02 21:56 NE 10 10.00 Fair CLR 82 32 16% 80 29.85 1009.4
02 20:56 N 8 10.00 Fair CLR 80.1 30 16% 78 29.83 1008.7
02 19:56 NE 7 10.00 Fair CLR 82.9 30 15% 80 29.82 1008.3
02 18:56 NE 6 10.00 Fair CLR 88 30.9 13% 84 29.81 1008.0
02 17:56 N 3 10.00 Fair CLR 89.1 32 13% 85 29.83 1008.5
02 16:56 SW 5 10.00 Fair CLR 90 30 91.9 86 12% 86 29.83 1008.7
02 15:56 N 8 10.00 Fair CLR 91 32 12% 87 29.83 1008.9
02 14:56 E 7 10.00 Fair CLR 90 33.1 13% 86 29.86 1009.8
02 13:56 E 7 10.00 Fair CLR 89.1 34 14% 85 29.88 1010.6
02 12:56 Vrbl 5 6.00 Fair with Haze CLR 90 37 15% 86 29.91 1011.4
02 11:56 S 10 10.00 Fair CLR 88 39.9 18% 84 29.93 1012.2
02 10:56 Calm 10.00 Fair CLR 86 39.9 87.1 64.9 20% 83 29.96 1013.1
02 09:56 E 10 G 21 10.00 Fair CLR 84 43 24% 81 29.97 1013.4
02 08:56 E 18 10.00 Fair CLR 80.1 44.1 28% 79 29.95 1012.9
02 07:56 E 23 G 28 10.00 Fair and Breezy CLR 77 45 32% 78 29.94 1012.6
02 06:56 E 15 10.00 Fair CLR 73 46.9 40% 29.93 1012.3
02 05:56 E 12 10.00 Fair CLR 71.1 42.1 35% 29.91 1011.4
02 04:56 E 6 10.00 Fair CLR 64.9 30 73 64 27% 29.89 1011.0
02 03:56 E 9 10.00 Fair CLR 66.9 32 27% 29.88 1010.7
02 02:56 Calm 10.00 Fair CLR 66.9 30.9 26% 29.88 1010.6
02 01:56 NE 9 10.00 Fair CLR 66 28.9 25% 29.88 1010.5
02 00:56 NE 3 10.00 Fair CLR 66 28.9 25% 0 0.0
01 23:56 Calm 10.00 Fair CLR 71.1 32 24% 29.87 1010.2
01 22:56 W 3 10.00 Fair CLR 73 30.9 88 71.1 21% 29.86 1009.9
01 21:56 SW 6 10.00 Fair CLR 73 32 22% 29.85 1009.7
01 20:56 SW 5 7.00 Fair CLR 77 32 19% 77 29.84 1009.2
01 19:56 W 7 10.00 Fair CLR 80.1 32 17% 78 29.82 1008.4
01 18:56 W 8 10.00 Fair CLR 84 34 17% 81 29.8 1007.9
Date Time (mst) Wind (mph) Vis. (mi.) Weather Sky Cond. Air Dwpt Max. Min. Relative Humidity Wind Chill (°F) Heat Index (°F) altimeter (in) sea level (mb) 1 hr 3 hr 6 hr
6 hour
Temperature (ºF) Pressure Precipitation (in)